Time;durP1;ratioP1;P1;durP2;ratioP2;P2;SDS_P1;SDS_P2;PMS_P1;PMS_P2;Temp;Humidity;BMP_temperature;BMP_pressure;BME280_temperature;BME280_humidity;BME280_pressure;Samples;Min_cycle;Max_cycle;Signal;HPM_P1;HPM_P2
2022/03/31 00:00:05;;;;;;;6.60;4.00;;;18.50;42.90;;;;;;5160395;27;20042;-61
2022/03/31 00:02:32;;;;;;;7.05;4.13;;;18.50;42.90;;;;;;5160153;27;20478;-58
2022/03/31 00:04:57;;;;;;;5.03;4.00;;;18.40;42.90;;;;;;5157184;27;20105;-60
2022/03/31 00:07:23;;;;;;;5.03;3.40;;;18.40;42.90;;;;;;5158033;27;20483;-60
2022/03/31 00:09:49;;;;;;;5.20;3.60;;;18.40;42.90;;;;;;5156447;27;20354;-59
2022/03/31 00:12:15;;;;;;;5.72;3.70;;;18.40;42.90;;;;;;5157923;27;20025;-60
2022/03/31 00:14:42;;;;;;;4.57;3.20;;;18.40;42.90;;;;;;5158048;27;20033;-59
2022/03/31 00:17:08;;;;;;;4.25;3.60;;;18.40;42.90;;;;;;5157735;27;20075;-59
2022/03/31 00:19:34;;;;;;;4.82;3.40;;;18.40;42.90;;;;;;5157882;27;20007;-57
2022/03/31 00:22:00;;;;;;;3.63;3.33;;;18.40;42.90;;;;;;5156157;27;20111;-59
2022/03/31 00:24:27;;;;;;;3.90;3.30;;;18.40;42.90;;;;;;5157407;27;20037;-59
2022/03/31 00:26:53;;;;;;;4.75;3.67;;;18.40;42.90;;;;;;5157452;27;20015;-59
2022/03/31 00:29:20;;;;;;;3.67;3.20;;;18.40;42.90;;;;;;5157527;27;20488;-59
2022/03/31 00:31:45;;;;;;;3.70;3.40;;;18.40;42.90;;;;;;5156728;27;20465;-59
2022/03/31 00:34:12;;;;;;;4.22;3.53;;;18.40;42.90;;;;;;5158132;27;20054;-59
2022/03/31 00:36:38;;;;;;;4.72;3.92;;;18.40;42.90;;;;;;5156765;27;20027;-60
2022/03/31 00:41:48;;;;;;;3.75;3.20;;;18.40;42.90;;;;;;5157612;27;20540;-59
2022/03/31 00:44:13;;;;;;;4.00;3.25;;;18.40;42.90;;;;;;5157086;27;20113;-61
2022/03/31 00:46:49;;;;;;;4.43;3.25;;;18.40;43.00;;;;;;5157371;27;20031;-60
2022/03/31 00:49:16;;;;;;;3.90;3.30;;;18.40;43.00;;;;;;5157045;27;20011;-60
2022/03/31 00:51:43;;;;;;;6.05;3.55;;;18.40;43.00;;;;;;5156831;27;20007;-59
2022/03/31 00:54:09;;;;;;;4.43;3.42;;;18.40;43.00;;;;;;5155542;27;20030;-59
2022/03/31 00:56:34;;;;;;;3.25;2.95;;;18.40;43.00;;;;;;5157073;27;20026;-60
2022/03/31 00:59:00;;;;;;;3.92;3.28;;;18.40;43.00;;;;;;5155452;27;20389;-60
2022/03/31 01:01:26;;;;;;;3.70;3.40;;;18.40;43.00;;;;;;5157595;27;20011;-58
2022/03/31 01:03:52;;;;;;;3.95;3.15;;;18.40;43.00;;;;;;5157520;27;20019;-60
2022/03/31 01:06:18;;;;;;;4.80;3.53;;;18.40;43.10;;;;;;5156261;27;20030;-60
2022/03/31 01:08:44;;;;;;;4.00;3.50;;;18.40;43.00;;;;;;5155973;27;20372;-60
2022/03/31 01:11:11;;;;;;;3.30;2.97;;;18.30;43.00;;;;;;5156064;27;20019;-59
2022/03/31 01:13:37;;;;;;;3.85;3.00;;;18.40;43.00;;;;;;5156500;27;20015;-60
2022/03/31 01:16:03;;;;;;;3.40;3.00;;;18.30;43.00;;;;;;5157984;27;20022;-59
2022/03/31 01:18:30;;;;;;;3.85;3.33;;;18.30;43.00;;;;;;5158089;27;20019;-60
2022/03/31 01:20:56;;;;;;;4.50;3.72;;;18.30;43.00;;;;;;5158500;27;20022;-60
2022/03/31 01:23:22;;;;;;;4.03;3.45;;;18.30;43.00;;;;;;5158617;27;20027;-61
2022/03/31 01:25:49;;;;;;;3.92;3.13;;;18.30;43.10;;;;;;5157081;27;20018;-60
2022/03/31 01:28:15;;;;;;;3.45;2.97;;;18.30;43.00;;;;;;5157715;27;20083;-58
2022/03/31 01:30:41;;;;;;;4.15;3.08;;;18.30;43.00;;;;;;5157615;27;20488;-61
2022/03/31 01:33:07;;;;;;;3.78;2.90;;;18.40;43.10;;;;;;5157163;27;20015;-59
2022/03/31 01:35:34;;;;;;;4.78;3.47;;;18.40;43.10;;;;;;5155719;27;20023;-58
2022/03/31 01:38:00;;;;;;;3.53;3.22;;;18.30;43.00;;;;;;5156212;27;20030;-59
2022/03/31 01:40:26;;;;;;;4.40;3.72;;;18.30;43.00;;;;;;5156032;27;20023;-60
2022/03/31 01:42:52;;;;;;;3.47;3.17;;;18.30;43.10;;;;;;5155730;27;20353;-59
2022/03/31 01:45:20;;;;;;;4.57;3.40;;;18.40;43.10;;;;;;5153922;27;20026;-60
2022/03/31 01:47:47;;;;;;;3.72;3.42;;;18.30;43.10;;;;;;5156860;27;20031;-60
2022/03/31 01:50:14;;;;;;;3.60;3.30;;;18.30;43.10;;;;;;5157622;27;20480;-60
2022/03/31 01:52:40;;;;;;;3.78;3.38;;;18.30;43.10;;;;;;5156952;27;20114;-60
2022/03/31 01:55:06;;;;;;;4.75;3.08;;;18.30;43.10;;;;;;5159016;27;20684;-60
2022/03/31 01:57:31;;;;;;;4.20;3.35;;;18.30;43.10;;;;;;5158017;27;20385;-60
2022/03/31 01:59:59;;;;;;;6.30;3.10;;;18.30;43.20;;;;;;5159048;27;20030;-60
2022/03/31 02:02:25;;;;;;;3.40;3.10;;;18.30;43.10;;;;;;5158249;27;20023;-61
2022/03/31 02:04:52;;;;;;;3.30;3.00;;;18.30;43.10;;;;;;5155830;27;20063;-60
2022/03/31 02:07:18;;;;;;;3.97;3.30;;;18.30;43.20;;;;;;5156375;27;20015;-59
2022/03/31 02:09:44;;;;;;;3.83;2.80;;;18.30;43.20;;;;;;5157063;27;20015;-59
2022/03/31 02:12:09;;;;;;;3.30;3.00;;;18.30;43.20;;;;;;5155322;27;20110;-60
2022/03/31 02:14:39;;;;;;;3.88;2.65;;;18.30;43.20;;;;;;5156467;27;20417;-60
2022/03/31 02:17:08;;;;;;;5.28;3.35;;;18.30;43.20;;;;;;5157133;27;20023;-60
2022/03/31 02:19:35;;;;;;;3.65;2.83;;;18.20;43.10;;;;;;5156919;27;20071;-60
2022/03/31 02:22:04;;;;;;;3.58;3.13;;;18.20;43.10;;;;;;5155855;27;20065;-60
2022/03/31 02:24:30;;;;;;;4.47;2.63;;;18.30;43.10;;;;;;5155941;27;20084;-60
2022/03/31 02:26:57;;;;;;;4.18;3.08;;;18.20;43.10;;;;;;5155808;27;20015;-59
2022/03/31 02:29:22;;;;;;;4.05;2.75;;;18.20;43.00;;;;;;5155730;27;20010;-59
2022/03/31 02:31:51;;;;;;;3.65;2.90;;;18.20;43.10;;;;;;5136645;27;20102;-60
2022/03/31 02:34:17;;;;;;;4.13;2.72;;;18.20;43.20;;;;;;5156167;27;20015;-59
2022/03/31 02:36:43;;;;;;;3.70;2.80;;;18.20;43.10;;;;;;5156152;27;20108;-60
2022/03/31 02:39:09;;;;;;;3.08;2.72;;;18.20;43.70;;;;;;5154681;27;20023;-60
2022/03/31 02:41:35;;;;;;;4.43;2.53;;;18.20;43.10;;;;;;5154084;27;20063;-60
2022/03/31 02:44:02;;;;;;;3.00;2.63;;;18.20;43.10;;;;;;5155528;27;20071;-58
2022/03/31 02:46:28;;;;;;;4.43;3.13;;;18.20;43.10;;;;;;5154152;27;20003;-59
2022/03/31 02:48:55;;;;;;;4.80;2.50;;;18.20;43.10;;;;;;5155699;27;20053;-59
2022/03/31 02:51:21;;;;;;;2.90;2.47;;;18.20;43.10;;;;;;5155724;27;20014;-59
2022/03/31 02:56:32;;;;;;;4.03;2.58;;;18.10;43.10;;;;;;5158943;27;20038;-60
2022/03/31 02:58:58;;;;;;;4.47;2.80;;;18.20;43.10;;;;;;5159724;27;20019;-61
2022/03/31 03:01:24;;;;;;;4.63;2.80;;;18.20;43.10;;;;;;5160308;27;20129;-61
2022/03/31 03:03:50;;;;;;;4.45;2.33;;;18.10;43.00;;;;;;5159759;27;20105;-59
2022/03/31 03:06:16;;;;;;;2.63;2.22;;;18.10;43.00;;;;;;5159900;27;20042;-61
2022/03/31 03:08:42;;;;;;;2.97;2.40;;;18.20;43.10;;;;;;5159744;27;20404;-60
2022/03/31 03:11:08;;;;;;;2.90;2.38;;;18.20;43.10;;;;;;5160083;27;20022;-60
2022/03/31 03:13:35;;;;;;;3.00;2.03;;;18.10;43.00;;;;;;5159431;27;20094;-59
2022/03/31 03:16:08;;;;;;;3.88;2.83;;;18.10;43.10;;;;;;5161131;27;20023;-60
2022/03/31 03:18:34;;;;;;;2.40;2.20;;;18.10;43.10;;;;;;5160860;27;20038;-60
2022/03/31 03:21:01;;;;;;;3.08;1.92;;;18.10;43.10;;;;;;5159274;27;20082;-60
2022/03/31 03:23:27;;;;;;;4.40;2.50;;;18.10;43.10;;;;;;5157458;27;20499;-59
2022/03/31 03:25:53;;;;;;;2.42;2.08;;;18.10;43.10;;;;;;5159567;27;20098;-60
2022/03/31 03:28:19;;;;;;;3.60;2.30;;;18.10;43.00;;;;;;5158700;27;20011;-60
2022/03/31 03:30:46;;;;;;;2.45;2.25;;;18.10;43.00;;;;;;5157703;27;20014;-60
2022/03/31 03:33:12;;;;;;;2.97;1.98;;;18.10;43.00;;;;;;5157610;27;20148;-60
2022/03/31 03:35:37;;;;;;;3.05;2.20;;;18.10;42.90;;;;;;5159923;27;20094;-61
2022/03/31 03:38:04;;;;;;;3.45;2.30;;;18.10;42.90;;;;;;5158167;27;20075;-59
2022/03/31 03:40:31;;;;;;;2.17;1.98;;;18.10;42.90;;;;;;5158152;27;20022;-60
2022/03/31 03:42:57;;;;;;;4.28;2.10;;;18.10;42.90;;;;;;5156851;27;20072;-60
2022/03/31 03:45:23;;;;;;;3.25;2.05;;;18.10;42.90;;;;;;5158396;27;20015;-60
2022/03/31 03:47:49;;;;;;;2.72;1.83;;;18.10;42.80;;;;;;5158229;27;20099;-60
2022/03/31 03:50:16;;;;;;;2.65;1.70;;;18.10;42.80;;;;;;5158637;27;20019;-59
2022/03/31 03:52:42;;;;;;;2.30;1.98;;;18.30;42.60;;;;;;5158076;27;20548;-59
2022/03/31 03:55:09;;;;;;;2.13;1.80;;;18.30;42.40;;;;;;5158608;27;20011;-60
2022/03/31 03:57:35;;;;;;;2.08;1.73;;;18.40;42.30;;;;;;5156583;27;20041;-59
2022/03/31 04:00:00;;;;;;;2.22;1.80;;;18.50;42.10;;;;;;5157273;27;20528;-59
2022/03/31 04:02:26;;;;;;;2.17;1.88;;;18.50;41.90;;;;;;5158100;27;20386;-60
2022/03/31 04:04:52;;;;;;;1.85;1.60;;;18.70;41.70;;;;;;5157396;27;20469;-60
2022/03/31 04:07:18;;;;;;;1.90;1.70;;;18.70;41.40;;;;;;5156058;27;20014;-59
2022/03/31 04:09:44;;;;;;;1.58;1.48;;;18.80;41.30;;;;;;5157054;27;20030;-60
2022/03/31 04:12:10;;;;;;;1.85;1.70;;;18.90;41.10;;;;;;5157966;27;20465;-59
2022/03/31 04:14:36;;;;;;;2.28;1.48;;;19.10;40.80;;;;;;5158266;27;20023;-60
2022/03/31 04:17:03;;;;;;;3.60;1.58;;;19.20;40.50;;;;;;5157962;27;20111;-59
2022/03/31 04:19:29;;;;;;;1.50;1.40;;;19.30;40.30;;;;;;5158190;27;20034;-60
2022/03/31 04:21:56;;;;;;;2.20;1.60;;;19.40;40.10;;;;;;5157963;27;20046;-60
2022/03/31 04:24:22;;;;;;;2.17;1.63;;;19.50;39.90;;;;;;5158444;27;20030;-60
2022/03/31 04:26:48;;;;;;;1.63;1.30;;;19.60;39.70;;;;;;5158503;27;20015;-60
2022/03/31 04:29:14;;;;;;;1.40;1.23;;;19.70;39.50;;;;;;5157881;27;20007;-60
2022/03/31 04:31:43;;;;;;;2.40;1.50;;;19.90;39.40;;;;;;5160151;27;20067;-60
2022/03/31 04:34:15;;;;;;;4.07;1.55;;;20.00;39.10;;;;;;5161389;27;20019;-60
2022/03/31 04:36:41;;;;;;;2.17;1.25;;;20.10;38.90;;;;;;5160852;27;20023;-60
2022/03/31 04:39:07;;;;;;;1.60;1.50;;;20.20;38.70;;;;;;5161219;27;20007;-61
2022/03/31 04:41:32;;;;;;;2.03;1.50;;;20.30;38.40;;;;;;5160753;27;20023;-61
2022/03/31 04:43:59;;;;;;;1.48;1.15;;;20.40;38.30;;;;;;5160292;27;20026;-60
2022/03/31 04:46:25;;;;;;;1.70;1.52;;;20.50;38.10;;;;;;5160297;27;20011;-60
2022/03/31 04:48:51;;;;;;;1.85;1.50;;;20.60;37.90;;;;;;5157310;27;20026;-61
2022/03/31 04:51:17;;;;;;;2.38;1.38;;;20.70;37.70;;;;;;5158043;27;20469;-60
2022/03/31 04:53:43;;;;;;;1.70;1.30;;;20.80;37.60;;;;;;5157342;27;20015;-61
2022/03/31 04:56:10;;;;;;;1.65;1.45;;;20.90;37.50;;;;;;5155679;27;20544;-59
2022/03/31 04:58:37;;;;;;;1.40;1.30;;;21.00;37.30;;;;;;5157218;27;20086;-60
2022/03/31 05:01:04;;;;;;;1.77;1.48;;;21.00;37.20;;;;;;5155849;27;20053;-59
2022/03/31 05:03:30;;;;;;;3.03;1.40;;;21.10;37.10;;;;;;5156716;27;20484;-59
2022/03/31 05:05:57;;;;;;;1.30;1.20;;;21.10;37.10;;;;;;5157101;27;20007;-60
2022/03/31 05:08:23;;;;;;;2.03;1.20;;;21.10;37.00;;;;;;5156817;27;20030;-60
2022/03/31 05:10:49;;;;;;;1.52;1.20;;;21.10;37.00;;;;;;5157339;27;20034;-60
2022/03/31 05:13:15;;;;;;;1.50;1.20;;;21.10;37.00;;;;;;5156771;27;20381;-59
2022/03/31 05:15:40;;;;;;;1.30;1.20;;;21.10;37.10;;;;;;5156754;27;20022;-60
2022/03/31 05:18:06;;;;;;;1.42;1.20;;;21.10;37.20;;;;;;5137849;27;20494;-60
2022/03/31 05:20:34;;;;;;;1.33;1.23;;;21.10;37.10;;;;;;5157054;27;20029;-60
2022/03/31 05:23:01;;;;;;;1.23;1.13;;;21.10;37.20;;;;;;5156840;27;20047;-60
2022/03/31 05:25:26;;;;;;;1.27;1.17;;;21.10;37.10;;;;;;5157221;27;20026;-60
2022/03/31 05:27:53;;;;;;;1.58;1.10;;;21.00;37.10;;;;;;5157106;27;20031;-60
2022/03/31 05:30:19;;;;;;;1.38;1.20;;;21.00;37.20;;;;;;5138852;27;20025;-60
2022/03/31 05:32:46;;;;;;;1.13;1.00;;;21.00;37.20;;;;;;5157921;27;20067;-60
2022/03/31 05:35:13;;;;;;;1.95;1.02;;;21.10;37.10;;;;;;5155278;27;20094;-60
2022/03/31 05:37:39;;;;;;;1.40;0.93;;;21.10;37.10;;;;;;5156735;27;20022;-60
2022/03/31 05:40:06;;;;;;;1.10;0.93;;;21.10;37.10;;;;;;5156375;27;20015;-59
2022/03/31 05:42:33;;;;;;;0.80;0.80;;;21.10;37.10;;;;;;5156786;27;20021;-60
2022/03/31 05:44:59;;;;;;;1.02;0.93;;;21.10;37.00;;;;;;5155822;27;20337;-60
2022/03/31 05:47:25;;;;;;;0.82;0.82;;;21.10;37.00;;;;;;5157042;27;20042;-60
2022/03/31 05:49:51;;;;;;;1.65;1.13;;;21.10;37.00;;;;;;5156098;27;20017;-58
2022/03/31 05:52:17;;;;;;;1.08;0.98;;;21.20;37.00;;;;;;5155987;27;20477;-60
2022/03/31 05:54:43;;;;;;;0.98;0.90;;;21.20;36.90;;;;;;5137438;27;20015;-59
2022/03/31 05:57:09;;;;;;;1.17;1.00;;;21.20;36.80;;;;;;5156422;27;20015;-60
2022/03/31 05:59:34;;;;;;;1.63;1.15;;;21.20;36.80;;;;;;5154495;27;20026;-58
2022/03/31 06:02:00;;;;;;;1.10;1.00;;;21.20;36.80;;;;;;5154669;27;20511;-60
2022/03/31 06:04:26;;;;;;;1.10;1.00;;;21.20;36.80;;;;;;5156589;27;20058;-60
2022/03/31 06:06:52;;;;;;;1.23;1.00;;;21.20;36.90;;;;;;5157574;27;20011;-60
2022/03/31 06:09:20;;;;;;;1.10;0.98;;;21.20;36.80;;;;;;5157279;27;20086;-60
2022/03/31 06:11:46;;;;;;;1.00;0.90;;;21.30;36.80;;;;;;5156510;27;20010;-60
2022/03/31 06:14:12;;;;;;;1.02;0.90;;;21.30;36.70;;;;;;5155650;27;20045;-61
2022/03/31 06:16:38;;;;;;;0.82;0.80;;;21.30;36.60;;;;;;5156152;27;20018;-60
2022/03/31 06:19:05;;;;;;;0.70;0.70;;;21.30;36.60;;;;;;5155921;27;20367;-60
2022/03/31 06:21:31;;;;;;;1.08;0.85;;;21.30;36.60;;;;;;5155096;27;20098;-60
2022/03/31 06:23:57;;;;;;;1.10;0.75;;;21.40;36.70;;;;;;5155649;27;20035;-58
2022/03/31 06:26:23;;;;;;;0.82;0.80;;;21.40;36.70;;;;;;5155888;27;20403;-58
2022/03/31 06:28:49;;;;;;;1.10;0.90;;;21.40;36.60;;;;;;5154813;27;20088;-58
2022/03/31 06:31:15;;;;;;;0.77;0.77;;;21.50;36.60;;;;;;5155855;27;20333;-58
2022/03/31 06:33:41;;;;;;;1.00;0.80;;;21.40;36.60;;;;;;5155534;27;20100;-58
2022/03/31 06:36:08;;;;;;;1.20;0.80;;;21.40;36.50;;;;;;5153066;27;20046;-56
2022/03/31 06:38:34;;;;;;;0.60;0.60;;;21.40;36.50;;;;;;5136708;27;20022;-58
2022/03/31 06:41:14;;;;;;;2.45;0.80;;;21.50;36.50;;;;;;5154951;27;20038;-60
2022/03/31 06:43:41;;;;;;;0.93;0.73;;;21.40;36.60;;;;;;5155146;27;20104;-61
2022/03/31 06:46:07;;;;;;;1.58;1.00;;;21.50;36.50;;;;;;5154307;27;20259;-58
2022/03/31 06:48:33;;;;;;;0.75;0.75;;;21.50;36.50;;;;;;5154601;27;20019;-59
2022/03/31 06:50:59;;;;;;;1.00;0.68;;;21.50;36.40;;;;;;5154802;27;20461;-59
2022/03/31 06:53:25;;;;;;;2.15;1.00;;;21.50;36.30;;;;;;5153171;27;20093;-59
2022/03/31 06:55:51;;;;;;;0.95;0.88;;;21.50;36.30;;;;;;5155378;27;20015;-58
2022/03/31 06:58:17;;;;;;;1.35;1.10;;;21.50;36.30;;;;;;5154783;27;20027;-58
2022/03/31 07:00:44;;;;;;;1.67;0.90;;;21.50;36.30;;;;;;5154885;27;20034;-58
2022/03/31 07:03:09;;;;;;;0.82;0.70;;;21.60;36.40;;;;;;5155208;27;20090;-59
2022/03/31 07:05:36;;;;;;;0.70;0.70;;;21.60;36.30;;;;;;5154859;27;20078;-59
2022/03/31 07:08:03;;;;;;;0.90;0.63;;;21.60;36.20;;;;;;5154974;27;20055;-58
2022/03/31 07:10:30;;;;;;;1.30;0.90;;;21.60;36.10;;;;;;5154316;27;20003;-59
2022/03/31 07:12:56;;;;;;;2.88;0.98;;;21.60;36.00;;;;;;5152352;27;20079;-59
2022/03/31 07:15:22;;;;;;;1.95;0.70;;;21.60;36.10;;;;;;5152677;27;20453;-59
2022/03/31 07:17:48;;;;;;;0.80;0.60;;;21.70;36.10;;;;;;5154120;27;20011;-59
2022/03/31 07:20:13;;;;;;;1.10;0.90;;;21.70;36.00;;;;;;5152749;27;20025;-59
2022/03/31 07:22:50;;;;;;;0.65;0.63;;;21.70;35.90;;;;;;5153315;27;20515;-59
2022/03/31 07:25:16;;;;;;;1.65;0.90;;;21.70;36.00;;;;;;5154708;27;20026;-59
2022/03/31 07:27:42;;;;;;;1.25;0.80;;;21.70;35.90;;;;;;5155048;27;20015;-59
2022/03/31 07:30:08;;;;;;;1.60;0.73;;;21.70;35.90;;;;;;5154207;27;20019;-59
2022/03/31 07:32:34;;;;;;;0.80;0.65;;;21.70;35.90;;;;;;5152658;27;20015;-59
2022/03/31 07:35:00;;;;;;;4.15;0.80;;;21.70;35.90;;;;;;5154107;27;20011;-59
2022/03/31 07:37:26;;;;;;;0.52;0.50;;;21.70;35.90;;;;;;5153859;27;20013;-59
2022/03/31 07:39:54;;;;;;;0.75;0.60;;;21.80;35.90;;;;;;5153688;27;20019;-59
2022/03/31 07:42:20;;;;;;;1.77;1.10;;;21.80;35.90;;;;;;5154708;27;20098;-59
2022/03/31 07:44:45;;;;;;;2.45;0.80;;;21.80;35.90;;;;;;5156219;27;20107;-59
2022/03/31 07:47:11;;;;;;;1.02;0.77;;;21.80;35.80;;;;;;5157393;27;20011;-59
2022/03/31 07:49:38;;;;;;;0.77;0.63;;;21.80;35.80;;;;;;5156955;27;20076;-59
2022/03/31 07:52:05;;;;;;;0.95;0.73;;;21.80;35.80;;;;;;5157650;27;20044;-59
2022/03/31 07:54:31;;;;;;;1.02;0.70;;;21.80;35.80;;;;;;5156914;27;20468;-60
2022/03/31 07:56:56;;;;;;;0.70;0.60;;;21.80;35.80;;;;;;5156340;27;20082;-59
2022/03/31 07:59:25;;;;;;;2.25;0.73;;;21.80;35.80;;;;;;5156063;27;20427;-59
2022/03/31 08:01:52;;;;;;;0.68;0.60;;;21.90;35.80;;;;;;5156897;27;20014;-59
2022/03/31 08:04:18;;;;;;;1.10;0.70;;;21.90;35.80;;;;;;5157428;27;20548;-59
2022/03/31 08:06:43;;;;;;;2.38;0.77;;;21.90;35.80;;;;;;5157307;27;20049;-59
2022/03/31 08:09:15;;;;;;;0.70;0.70;;;21.90;35.80;;;;;;5158317;27;20341;-59
2022/03/31 08:11:43;;;;;;;1.30;0.70;;;21.90;35.60;;;;;;5157955;27;20022;-60
2022/03/31 08:14:08;;;;;;;1.02;0.70;;;21.90;35.60;;;;;;5158581;27;20027;-60
2022/03/31 08:16:36;;;;;;;0.75;0.60;;;21.90;35.60;;;;;;5139005;27;20030;-59
2022/03/31 08:19:02;;;;;;;0.93;0.70;;;22.00;36.20;;;;;;5138675;27;20042;-60
2022/03/31 08:21:28;;;;;;;1.52;0.85;;;21.90;35.60;;;;;;5154955;27;20087;-59
2022/03/31 08:23:54;;;;;;;0.90;0.60;;;22.00;36.20;;;;;;5137506;27;20038;-61
2022/03/31 08:26:20;;;;;;;1.48;0.70;;;22.00;35.60;;;;;;5154617;27;20022;-60
2022/03/31 08:28:46;;;;;;;2.90;0.68;;;22.00;35.50;;;;;;5156176;27;20023;-58
2022/03/31 08:31:12;;;;;;;1.35;0.60;;;22.00;35.50;;;;;;5156188;27;20007;-61
2022/03/31 08:33:38;;;;;;;1.42;0.70;;;22.10;35.50;;;;;;5137679;27;20019;-60
2022/03/31 08:36:04;;;;;;;0.38;0.30;;;22.10;35.30;;;;;;5156063;27;20018;-59
2022/03/31 08:38:29;;;;;;;0.80;0.63;;;22.10;35.30;;;;;;5154735;27;20025;-59
2022/03/31 08:40:56;;;;;;;2.78;0.70;;;22.10;35.90;;;;;;5156056;27;20023;-59
2022/03/31 08:43:22;;;;;;;0.50;0.50;;;22.10;35.30;;;;;;5154849;27;20033;-59
2022/03/31 08:45:54;;;;;;;0.70;0.50;;;22.20;35.40;;;;;;5137629;27;20015;-59
2022/03/31 08:48:23;;;;;;;0.80;0.60;;;22.20;35.40;;;;;;5156643;27;20023;-60
2022/03/31 08:50:49;;;;;;;1.33;0.65;;;22.20;35.40;;;;;;5154361;27;20019;-59
2022/03/31 08:53:15;;;;;;;1.58;0.80;;;22.20;35.30;;;;;;5155380;27;20086;-60
2022/03/31 08:55:41;;;;;;;2.00;0.65;;;22.20;35.20;;;;;;5155159;27;20103;-59
2022/03/31 08:58:10;;;;;;;4.65;0.85;;;22.20;35.40;;;;;;5154237;27;20046;-60
2022/03/31 09:00:35;;;;;;;18.17;1.42;;;22.10;35.50;;;;;;5155832;27;20006;-59
2022/03/31 09:03:07;;;;;;;10.50;1.63;;;22.20;34.60;;;;;;5155814;27;20568;-60
2022/03/31 09:05:52;;;;;;;20.08;1.65;;;22.30;34.30;;;;;;5153974;27;20018;-59
2022/03/31 09:08:18;;;;;;;12.10;1.60;;;22.50;34.60;;;;;;5155756;27;20080;-60
2022/03/31 09:10:49;;;;;;;14.63;1.40;;;22.60;35.00;;;;;;5154876;27;20426;-59
2022/03/31 09:13:26;;;;;;;11.85;1.85;;;22.70;35.30;;;;;;5154049;27;20018;-59
2022/03/31 09:15:58;;;;;;;8.95;1.60;;;22.90;35.70;;;;;;5156290;27;20049;-59
2022/03/31 09:18:25;;;;;;;9.00;1.23;;;23.10;35.90;;;;;;5155974;27;20429;-60
2022/03/31 09:20:53;;;;;;;16.35;1.65;;;23.20;36.10;;;;;;5153895;27;20071;-59
2022/03/31 09:23:20;;;;;;;10.43;1.25;;;23.30;36.40;;;;;;5154635;27;20049;-59
2022/03/31 09:25:46;;;;;;;8.90;1.38;;;23.40;36.70;;;;;;5155785;27;20673;-58
2022/03/31 09:28:18;;;;;;;9.73;1.70;;;23.50;36.90;;;;;;5154150;27;20034;-59
2022/03/31 09:30:52;;;;;;;13.85;1.67;;;23.60;37.20;;;;;;5155612;27;20109;-58
2022/03/31 09:33:37;;;;;;;12.07;2.35;;;23.70;37.70;;;;;;5153745;27;20011;-58
2022/03/31 09:36:17;;;;;;;16.58;2.08;;;23.80;37.90;;;;;;5153842;27;20095;-59
2022/03/31 09:38:51;;;;;;;17.65;2.42;;;23.90;38.50;;;;;;5155674;27;20030;-58
2022/03/31 09:41:18;;;;;;;28.23;3.40;;;24.00;38.70;;;;;;5154586;27;20064;-58
2022/03/31 09:43:44;;;;;;;30.05;2.20;;;24.00;38.90;;;;;;5154881;27;20023;-59
2022/03/31 09:46:20;;;;;;;22.38;2.72;;;24.10;39.60;;;;;;5155497;27;20019;-60
2022/03/31 09:48:48;;;;;;;43.00;3.67;;;24.20;40.00;;;;;;5153272;27;20026;-60
2022/03/31 09:51:14;;;;;;;21.45;2.70;;;24.30;40.30;;;;;;5153236;27;20110;-59
2022/03/31 09:53:40;;;;;;;26.30;3.03;;;24.20;40.90;;;;;;5153150;27;20015;-59
2022/03/31 09:56:09;;;;;;;23.42;3.15;;;24.10;41.40;;;;;;5153808;27;20026;-61
2022/03/31 09:58:38;;;;;;;34.08;2.80;;;24.00;41.60;;;;;;5135122;27;20018;-60
2022/03/31 10:01:04;;;;;;;28.85;2.65;;;23.80;39.70;;;;;;5154148;27;20011;-61
2022/03/31 10:03:31;;;;;;;22.58;2.15;;;23.70;37.30;;;;;;5154319;27;20125;-60
2022/03/31 10:05:57;;;;;;;28.35;2.67;;;23.50;36.70;;;;;;5153274;27;20086;-60
2022/03/31 10:08:29;;;;;;;15.15;1.92;;;23.30;35.70;;;;;;5135395;27;20098;-59
2022/03/31 10:10:55;;;;;;;16.70;1.40;;;23.20;34.90;;;;;;5154229;27;20017;-60
2022/03/31 10:13:24;;;;;;;14.85;1.50;;;23.20;33.50;;;;;;5154137;27;20544;-58
2022/03/31 10:15:58;;;;;;;11.50;1.77;;;23.00;32.80;;;;;;5154004;27;20017;-59
2022/03/31 10:18:28;;;;;;;21.80;2.55;;;22.90;32.60;;;;;;5136384;27;20101;-59
2022/03/31 10:20:56;;;;;;;9.15;1.35;;;22.80;32.60;;;;;;5153485;27;20019;-58
2022/03/31 10:26:08;;;;;;;8.93;1.42;;;22.70;32.70;;;;;;5152731;27;20517;-57
2022/03/31 10:28:34;;;;;;;12.82;1.60;;;22.70;33.00;;;;;;5152172;27;20015;-58
2022/03/31 10:31:02;;;;;;;10.35;1.15;;;22.70;33.10;;;;;;5153190;27;20496;-57
2022/03/31 10:33:51;;;;;;;9.50;1.20;;;22.70;33.20;;;;;;5153378;27;20093;-56
2022/03/31 10:36:19;;;;;;;6.50;1.38;;;22.70;33.30;;;;;;5153171;27;20023;-57
2022/03/31 10:38:59;;;;;;;14.13;1.10;;;22.80;33.40;;;;;;5153058;27;20063;-59
2022/03/31 10:41:34;;;;;;;6.90;0.98;;;22.80;33.50;;;;;;5153096;27;20079;-60
2022/03/31 10:44:22;;;;;;;12.38;1.60;;;22.80;33.50;;;;;;5152803;27;20050;-58
2022/03/31 10:47:06;;;;;;;7.13;0.88;;;22.80;33.50;;;;;;5150593;27;20026;-58
2022/03/31 10:49:32;;;;;;;10.65;1.67;;;22.90;33.50;;;;;;5152892;27;20018;-58
2022/03/31 10:51:59;;;;;;;3.92;1.05;;;22.90;33.50;;;;;;5153351;27;20022;-58
2022/03/31 10:54:29;;;;;;;9.38;1.30;;;22.90;33.50;;;;;;5154167;27;20015;-58
2022/03/31 10:57:01;;;;;;;8.67;1.47;;;22.90;33.60;;;;;;5153899;27;20018;-58
2022/03/31 10:59:27;;;;;;;8.20;1.20;;;22.90;33.60;;;;;;5154507;27;20030;-58
2022/03/31 11:01:53;;;;;;;8.88;1.10;;;22.90;33.60;;;;;;5155505;27;20468;-58
2022/03/31 11:04:25;;;;;;;8.15;1.00;;;22.80;33.70;;;;;;5155030;27;20023;-58
2022/03/31 11:06:52;;;;;;;5.90;0.98;;;22.90;33.80;;;;;;5153672;27;20533;-58
2022/03/31 11:09:27;;;;;;;7.43;1.02;;;22.90;33.80;;;;;;5155611;27;20007;-58
2022/03/31 11:11:55;;;;;;;5.85;1.00;;;22.90;33.70;;;;;;5156154;27;20039;-59
2022/03/31 11:14:21;;;;;;;5.90;1.25;;;22.90;33.80;;;;;;5155931;27;20089;-59
2022/03/31 11:16:47;;;;;;;4.13;1.00;;;22.90;33.80;;;;;;5157836;27;20110;-58
2022/03/31 11:19:13;;;;;;;5.72;0.88;;;22.90;33.90;;;;;;5159084;27;20057;-59
2022/03/31 11:21:42;;;;;;;10.48;1.30;;;22.90;33.70;;;;;;5160967;27;20099;-58
2022/03/31 11:24:08;;;;;;;4.90;1.45;;;22.90;33.70;;;;;;5159068;27;20029;-58
2022/03/31 11:26:40;;;;;;;6.80;1.10;;;23.00;33.80;;;;;;5160190;27;20019;-59
2022/03/31 11:29:10;;;;;;;5.75;1.00;;;23.00;33.80;;;;;;5159550;27;20555;-59
2022/03/31 11:31:36;;;;;;;4.57;0.93;;;23.00;34.40;;;;;;5160076;27;20010;-59
2022/03/31 11:34:02;;;;;;;4.78;0.82;;;23.00;33.80;;;;;;5158381;27;20264;-60
2022/03/31 11:36:38;;;;;;;3.58;1.00;;;23.00;33.90;;;;;;5159437;27;20031;-59
2022/03/31 11:39:04;;;;;;;4.53;0.73;;;23.00;33.80;;;;;;5159646;27;20023;-58
2022/03/31 11:41:40;;;;;;;2.97;0.65;;;23.00;33.90;;;;;;5159136;27;20025;-59
2022/03/31 11:44:07;;;;;;;6.07;0.95;;;22.90;34.00;;;;;;5161065;27;20064;-59
2022/03/31 11:46:49;;;;;;;4.35;0.88;;;22.90;34.10;;;;;;5160379;27;20022;-59
2022/03/31 11:49:23;;;;;;;2.25;1.10;;;22.90;34.00;;;;;;5160950;27;20033;-59
2022/03/31 11:51:57;;;;;;;3.53;0.80;;;22.90;34.00;;;;;;5159952;27;20011;-59
2022/03/31 11:54:23;;;;;;;6.05;0.80;;;23.00;34.00;;;;;;5159110;27;20030;-58
2022/03/31 11:57:03;;;;;;;6.35;1.00;;;22.90;34.10;;;;;;5160710;27;20485;-59
2022/03/31 11:59:29;;;;;;;6.63;1.00;;;23.00;34.10;;;;;;5160166;27;20019;-59
2022/03/31 12:01:56;;;;;;;2.55;0.68;;;22.90;34.10;;;;;;5161336;27;20051;-59
2022/03/31 12:04:29;;;;;;;4.95;0.98;;;23.00;34.00;;;;;;5160344;27;20023;-59
2022/03/31 12:06:55;;;;;;;3.88;0.68;;;23.00;34.10;;;;;;5159075;27;20064;-59
2022/03/31 12:09:25;;;;;;;2.17;0.73;;;23.00;34.10;;;;;;5159135;27;20509;-59
2022/03/31 12:11:52;;;;;;;3.53;0.80;;;23.00;34.00;;;;;;5158397;27;20120;-59
2022/03/31 12:14:17;;;;;;;2.85;0.70;;;23.00;34.00;;;;;;5157520;27;20019;-59
2022/03/31 12:16:56;;;;;;;2.88;0.80;;;23.00;34.00;;;;;;5158772;27;20037;-58
2022/03/31 12:19:22;;;;;;;4.95;0.80;;;23.00;34.00;;;;;;5156587;27;20422;-59
2022/03/31 12:21:50;;;;;;;5.22;1.27;;;23.10;34.00;;;;;;5158238;27;20060;-58
2022/03/31 12:24:16;;;;;;;4.95;1.05;;;23.10;34.00;;;;;;5158745;27;20047;-59
2022/03/31 12:27:01;;;;;;;10.23;0.75;;;23.10;34.00;;;;;;5157673;27;20007;-58
2022/03/31 12:29:33;;;;;;;5.40;0.70;;;23.10;33.90;;;;;;5157375;27;20022;-58
2022/03/31 12:32:12;;;;;;;4.40;0.80;;;23.10;34.00;;;;;;5157844;27;20011;-58
2022/03/31 12:34:53;;;;;;;3.08;0.80;;;23.10;34.00;;;;;;5159149;27;20015;-59
2022/03/31 12:37:35;;;;;;;3.22;0.70;;;23.10;33.90;;;;;;5159228;27;20014;-58
2022/03/31 12:40:06;;;;;;;3.05;0.60;;;23.10;34.00;;;;;;5157618;27;20007;-58
2022/03/31 12:42:31;;;;;;;2.20;0.73;;;23.10;34.00;;;;;;5158678;27;20026;-57
2022/03/31 12:44:57;;;;;;;3.63;0.70;;;23.10;34.00;;;;;;5158663;27;20087;-58
2022/03/31 12:47:24;;;;;;;5.18;0.80;;;23.10;34.00;;;;;;5157996;27;20392;-57
2022/03/31 12:49:50;;;;;;;3.28;0.70;;;23.20;34.00;;;;;;5158108;27;20014;-58
2022/03/31 12:52:18;;;;;;;7.05;0.85;;;23.20;33.90;;;;;;5158277;27;20060;-57
2022/03/31 12:54:52;;;;;;;6.57;0.70;;;23.20;33.80;;;;;;5158357;27;20021;-58